Time;durP1;ratioP1;P1;durP2;ratioP2;P2;SDS_P1;SDS_P2;PMS_P1;PMS_P2;Temp;Humidity;BMP_temperature;BMP_pressure;BME280_temperature;BME280_humidity;BME280_pressure;Samples;Min_cycle;Max_cycle;Signal;HPM_P1;HPM_P2
2023/03/20 17:35:17;;;;;;;19.17;5.43;;;;;;;;;;4916029;29;20095;-95
2023/03/20 17:37:52;;;;;;;;;;;;;;;;;;;;;
2023/03/20 17:46:36;;;;;;;12.68;5.68;;;;;;;;;;4922056;29;20118;-95
2023/03/20 17:49:28;;;;;;;12.57;5.60;;;;;;;;;;4901427;29;20517;-96
2023/03/20 17:58:21;;;;;;;17.48;6.13;;;;;;;;;;4921247;29;20047;-96
2023/03/20 18:09:20;;;;;;;16.42;5.30;;;;;;;;;;4922970;29;20088;-96
2023/03/20 18:11:49;;;;;;;17.90;7.40;;;;;;;;;;4924664;29;20048;-94
2023/03/20 18:14:30;;;;;;;15.93;5.50;;;;;;;;;;4927919;29;20024;-95
2023/03/20 18:17:18;;;;;;;11.52;5.22;;;;;;;;;;4938667;29;20047;-95
2023/03/20 18:20:00;;;;;;;17.65;5.75;;;;;;;;;;4938774;29;20020;-95
2023/03/20 18:22:30;;;;;;;14.75;5.57;;;;;;;;;;5076631;23;20018;-96
2023/03/20 18:25:38;;;;;;;20.80;5.80;;;;;;;;;;4938317;29;20027;-95
2023/03/20 18:28:17;;;;;;;;;;;;;;;;;;;;;
2023/03/20 18:34:21;;;;;;;13.55;6.05;;;;;;;;;;4933830;29;20067;-95
2023/03/20 18:36:46;;;;;;;19.33;6.40;;;;;;;;;;4938020;29;20028;-95
2023/03/20 18:39:20;;;;;;;22.85;6.25;;;;;;;;;;4946639;29;20087;-95
2023/03/20 18:41:46;;;;;;;18.65;8.00;;;;;;;;;;4943312;29;20050;-96
2023/03/20 18:44:11;;;;;;;19.38;7.05;;;;;;;;;;4948206;29;20079;-96
2023/03/20 18:46:37;;;;;;;20.10;6.72;;;;;;;;;;4931136;29;20039;-94
2023/03/20 18:49:02;;;;;;;18.52;7.95;;;;;;;;;;4935720;29;20074;-95
2023/03/20 18:51:27;;;;;;;27.75;7.45;;;;;;;;;;4941954;29;20079;-93
2023/03/20 18:53:53;;;;;;;22.20;8.30;;;;;;;;;;4942677;29;20043;-95
2023/03/20 18:59:41;;;;;;;20.73;7.55;;;;;;;;;;4907711;29;20056;-96
2023/03/20 19:02:06;;;;;;;16.05;7.85;;;;;;;;;;4905676;29;20045;-96
2023/03/20 19:04:33;;;;;;;19.63;7.45;;;;;;;;;;4903012;29;20040;-96
2023/03/20 19:06:59;;;;;;;27.67;8.35;;;;;;;;;;4938246;29;20024;-96
2023/03/20 19:09:27;;;;;;;18.52;7.20;;;;;;;;;;4941939;29;20047;-96
2023/03/20 19:11:55;;;;;;;20.33;7.07;;;;;;;;;;4938322;29;20094;-96
2023/03/20 19:14:21;;;;;;;20.55;7.47;;;;;;;;;;4939848;29;20028;-95
2023/03/20 19:16:46;;;;;;;14.60;6.30;;;;;;;;;;4934713;29;20067;-96
2023/03/20 19:19:13;;;;;;;16.48;7.15;;;;;;;;;;4936063;29;20095;-95
2023/03/20 19:21:39;;;;;;;18.42;6.78;;;;;;;;;;4941776;29;20031;-95
2023/03/20 19:24:05;;;;;;;21.58;6.72;;;;;;;;;;4925691;29;20147;-95
2023/03/20 19:26:31;;;;;;;18.02;6.93;;;;;;;;;;4940166;29;20043;-94
2023/03/20 19:28:57;;;;;;;18.38;5.72;;;;;;;;;;4939309;29;20024;-95
2023/03/20 19:31:24;;;;;;;24.70;6.28;;;;;;;;;;4941766;29;20028;-96
2023/03/20 19:36:38;;;;;;;15.07;5.38;;;;;;;;;;4970201;23;20644;-94
2023/03/20 19:39:08;;;;;;;13.68;6.32;;;;;;;;;;4951724;28;20074;-95
2023/03/20 19:41:33;;;;;;;16.27;5.80;;;;;;;;;;4954542;29;20130;-95
2023/03/20 19:43:58;;;;;;;12.82;5.40;;;;;;;;;;4956084;28;20051;-94
2023/03/20 19:46:25;;;;;;;14.18;4.78;;;;;;;;;;4959000;29;20492;-94
2023/03/20 19:48:50;;;;;;;16.15;5.03;;;;;;;;;;4938933;29;20020;-95
2023/03/20 19:51:17;;;;;;;13.63;4.85;;;;;;;;;;4956412;29;20038;-95
2023/03/20 19:53:43;;;;;;;15.35;5.45;;;;;;;;;;4953022;29;20114;-95
2023/03/20 19:56:10;;;;;;;14.90;5.25;;;;;;;;;;4953632;29;20042;-96
2023/03/20 19:58:35;;;;;;;16.92;5.00;;;;;;;;;;4956919;29;20027;-95
2023/03/20 20:01:01;;;;;;;17.83;5.15;;;;;;;;;;4949811;29;20031;-96
2023/03/20 20:03:28;;;;;;;12.40;4.82;;;;;;;;;;4958448;28;20027;-94
2023/03/20 20:05:54;;;;;;;15.15;4.85;;;;;;;;;;4955469;29;20054;-95
2023/03/20 20:08:20;;;;;;;13.35;5.47;;;;;;;;;;4958340;29;20032;-94
2023/03/20 20:10:47;;;;;;;12.60;5.03;;;;;;;;;;4956246;29;20131;-96
2023/03/20 20:13:13;;;;;;;12.65;4.95;;;;;;;;;;4957023;28;20046;-96
2023/03/20 20:15:39;;;;;;;19.10;5.43;;;;;;;;;;4956007;28;20091;-95
2023/03/20 20:18:04;;;;;;;11.23;4.30;;;;;;;;;;4959146;29;20050;-95
2023/03/20 20:20:30;;;;;;;14.18;4.85;;;;;;;;;;4956331;29;20563;-95
2023/03/20 20:23:02;;;;;;;13.55;4.70;;;;;;;;;;4953546;29;20035;-95
2023/03/20 20:25:31;;;;;;;15.02;5.80;;;;;;;;;;4957458;29;20027;-94
2023/03/20 20:27:56;;;;;;;17.20;5.70;;;;;;;;;;4956651;29;20123;-96
2023/03/20 20:30:21;;;;;;;9.88;4.45;;;;;;;;;;4948981;29;20110;-96
2023/03/20 20:32:47;;;;;;;26.38;5.63;;;;;;;;;;4946999;29;20407;-96
2023/03/20 20:35:22;;;;;;;13.02;5.47;;;;;;;;;;4965834;29;20023;-96
2023/03/20 20:37:48;;;;;;;14.75;4.70;;;;;;;;;;4961030;29;20038;-96
2023/03/20 20:40:15;;;;;;;17.20;5.93;;;;;;;;;;4957766;28;20056;-96
2023/03/20 20:42:41;;;;;;;17.35;5.80;;;;;;;;;;4960343;29;20035;-96
2023/03/20 20:45:10;;;;;;;20.30;6.10;;;;;;;;;;4964415;28;20042;-96
2023/03/20 20:47:36;;;;;;;19.80;5.40;;;;;;;;;;4969872;28;20031;-96
2023/03/20 20:50:02;;;;;;;14.05;5.60;;;;;;;;;;4963240;28;20035;-95
2023/03/20 20:52:28;;;;;;;17.73;5.00;;;;;;;;;;4965331;29;20090;-96
2023/03/20 20:54:53;;;;;;;18.73;5.28;;;;;;;;;;4966708;28;20026;-96
2023/03/20 20:57:19;;;;;;;24.75;6.93;;;;;;;;;;4958763;29;20047;-96
2023/03/20 20:59:44;;;;;;;14.15;6.03;;;;;;;;;;4964555;28;20019;-96
2023/03/20 21:02:10;;;;;;;14.23;5.05;;;;;;;;;;4964398;29;20031;-96
2023/03/20 21:04:43;;;;;;;16.35;5.18;;;;;;;;;;4959260;29;20087;-96
2023/03/20 21:07:09;;;;;;;16.10;6.75;;;;;;;;;;4953520;29;20046;-96
2023/03/20 21:09:34;;;;;;;15.65;5.22;;;;;;;;;;4951455;29;20235;-94
2023/03/20 21:12:00;;;;;;;13.48;4.80;;;;;;;;;;4939578;29;20503;-95
2023/03/20 21:14:25;;;;;;;18.63;5.85;;;;;;;;;;4956434;29;20102;-95
2023/03/20 21:16:59;;;;;;;16.38;5.72;;;;;;;;;;4961329;28;20054;-96
2023/03/20 21:19:27;;;;;;;15.75;5.03;;;;;;;;;;4964156;28;20019;-96
2023/03/20 21:21:52;;;;;;;14.98;5.60;;;;;;;;;;4959053;29;20039;-96
2023/03/20 21:24:18;;;;;;;17.45;6.03;;;;;;;;;;4953369;29;20495;-94
2023/03/20 21:26:45;;;;;;;15.55;5.63;;;;;;;;;;4945165;28;20042;-94
2023/03/20 21:29:13;;;;;;;12.35;4.80;;;;;;;;;;4960973;28;20019;-94
2023/03/20 21:31:39;;;;;;;16.77;5.40;;;;;;;;;;4962721;29;20030;-94
2023/03/20 21:34:04;;;;;;;13.35;5.30;;;;;;;;;;4954775;29;20023;-94
2023/03/20 21:36:30;;;;;;;19.85;5.82;;;;;;;;;;4954951;28;20031;-95
2023/03/20 21:38:56;;;;;;;17.48;5.70;;;;;;;;;;4954717;29;20471;-95
2023/03/20 21:41:24;;;;;;;17.70;5.55;;;;;;;;;;4955834;29;20031;-95
2023/03/20 21:43:50;;;;;;;16.17;4.95;;;;;;;;;;4950613;29;20027;-94
2023/03/20 21:46:15;;;;;;;12.68;4.35;;;;;;;;;;4950271;29;20031;-94
2023/03/20 21:48:42;;;;;;;19.50;5.07;;;;;;;;;;4955580;29;20155;-95
2023/03/20 21:51:07;;;;;;;11.20;4.28;;;;;;;;;;4956436;29;20028;-95
2023/03/20 21:53:33;;;;;;;13.13;4.38;;;;;;;;;;4955285;29;20039;-95
2023/03/20 21:55:59;;;;;;;16.33;5.15;;;;;;;;;;4955060;28;20330;-94
2023/03/20 21:58:25;;;;;;;14.25;4.72;;;;;;;;;;4955162;28;20037;-94
2023/03/20 22:00:50;;;;;;;16.40;5.65;;;;;;;;;;4955133;28;20038;-94
2023/03/20 22:03:15;;;;;;;16.85;4.50;;;;;;;;;;4954664;29;20364;-95
2023/03/20 22:05:42;;;;;;;12.00;4.60;;;;;;;;;;4954981;28;20059;-94
2023/03/20 22:08:07;;;;;;;9.70;4.38;;;;;;;;;;4954699;28;20028;-95
2023/03/20 22:10:33;;;;;;;7.25;3.70;;;;;;;;;;4955087;29;20031;-94
2023/03/20 22:13:02;;;;;;;7.18;3.78;;;;;;;;;;4948215;28;20012;-95
2023/03/20 22:15:29;;;;;;;15.73;4.40;;;;;;;;;;4947902;29;20177;-95
2023/03/20 22:17:55;;;;;;;19.08;4.30;;;;;;;;;;4968834;28;20418;-95
2023/03/20 22:20:20;;;;;;;12.50;4.18;;;;;;;;;;4954612;29;20049;-95
2023/03/20 22:22:48;;;;;;;10.23;4.18;;;;;;;;;;4954410;29;20035;-94
2023/03/20 22:25:13;;;;;;;7.45;3.70;;;;;;;;;;4954276;28;20083;-94
2023/03/20 22:27:39;;;;;;;10.23;4.45;;;;;;;;;;4954070;29;20027;-95
2023/03/20 22:30:04;;;;;;;12.07;3.60;;;;;;;;;;4946483;29;20083;-94
2023/03/20 22:32:30;;;;;;;10.63;4.13;;;;;;;;;;4947437;29;20015;-95
2023/03/20 22:34:56;;;;;;;12.77;3.97;;;;;;;;;;4954190;28;20043;-94
2023/03/20 22:37:21;;;;;;;16.27;3.78;;;;;;;;;;4953429;28;20047;-95
2023/03/20 22:39:47;;;;;;;15.40;4.50;;;;;;;;;;4953053;28;20019;-94
2023/03/20 22:42:12;;;;;;;8.77;3.97;;;;;;;;;;4953564;29;20038;-95
2023/03/20 22:44:37;;;;;;;10.32;3.92;;;;;;;;;;4953701;28;20026;-94
2023/03/20 22:47:03;;;;;;;11.60;3.85;;;;;;;;;;4953125;29;20073;-94
2023/03/20 22:49:28;;;;;;;12.52;4.43;;;;;;;;;;4954580;28;20035;-95
2023/03/20 22:51:54;;;;;;;13.75;4.47;;;;;;;;;;4960647;28;20014;-95
2023/03/20 22:54:22;;;;;;;9.02;3.33;;;;;;;;;;4952425;29;20016;-95
2023/03/20 22:56:47;;;;;;;8.63;3.20;;;;;;;;;;4954145;29;20063;-94
2023/03/20 22:59:12;;;;;;;10.15;3.53;;;;;;;;;;4942320;29;20086;-94
2023/03/20 23:01:38;;;;;;;9.63;3.30;;;;;;;;;;4953389;28;20031;-95
2023/03/20 23:04:03;;;;;;;8.88;3.80;;;;;;;;;;4942991;28;20628;-94
2023/03/20 23:06:28;;;;;;;14.90;4.60;;;;;;;;;;4953969;28;20035;-96
2023/03/20 23:08:54;;;;;;;9.35;3.90;;;;;;;;;;4955851;29;20058;-96
2023/03/20 23:11:21;;;;;;;10.35;4.32;;;;;;;;;;4955095;28;20456;-94
2023/03/20 23:13:46;;;;;;;13.73;5.22;;;;;;;;;;4946626;28;20024;-94
2023/03/20 23:16:11;;;;;;;11.85;4.13;;;;;;;;;;4952291;29;20106;-95
2023/03/20 23:18:37;;;;;;;10.15;4.13;;;;;;;;;;4947583;28;20093;-95
2023/03/20 23:21:02;;;;;;;9.73;4.07;;;;;;;;;;4940430;28;20082;-95
2023/03/20 23:23:28;;;;;;;15.07;4.55;;;;;;;;;;4952719;28;20104;-95
2023/03/20 23:26:01;;;;;;;10.27;3.83;;;;;;;;;;4953885;29;20118;-94
2023/03/20 23:28:29;;;;;;;12.25;4.75;;;;;;;;;;4953238;29;20027;-95
2023/03/20 23:31:09;;;;;;;15.75;4.75;;;;;;;;;;4954666;29;20126;-95
2023/03/20 23:33:34;;;;;;;9.15;3.97;;;;;;;;;;4956283;28;20026;-95
2023/03/20 23:36:00;;;;;;;9.95;3.83;;;;;;;;;;4957796;28;20449;-95
2023/03/20 23:38:25;;;;;;;11.15;4.00;;;;;;;;;;4949652;29;20058;-94
2023/03/20 23:40:51;;;;;;;8.43;3.53;;;;;;;;;;4942654;29;20084;-95
2023/03/20 23:43:19;;;;;;;12.20;4.45;;;;;;;;;;4951677;29;20024;-95
2023/03/20 23:45:45;;;;;;;11.30;3.78;;;;;;;;;;4954939;28;20020;-95
2023/03/20 23:48:11;;;;;;;13.95;3.78;;;;;;;;;;4953874;29;20095;-95
2023/03/20 23:50:41;;;;;;;11.88;4.20;;;;;;;;;;4954895;28;20020;-95
2023/03/20 23:53:07;;;;;;;13.00;4.32;;;;;;;;;;4957371;28;20035;-95
2023/03/20 23:55:33;;;;;;;10.23;3.42;;;;;;;;;;4958087;29;20034;-95
2023/03/20 23:58:03;;;;;;;15.40;4.15;;;;;;;;;;4957716;28;20114;-95
